Terminal Aerodrome Forecast
Issued by NWS

Home | Current Version | Previous Version | Text Only | Print | Product List | Glossary On
Versions: 1 2 3 4 5 6 7 8 9 10 11 12 13 14 15 16 17 18 19 20 21 22 23 24 25 26 27 28 29
000
FTUS46 KLOX 230200 AAA
TAFSBP
TAF AMD
KSBP 230202Z 2302/2324 34009KT P6SM BKN008 OVC013
     FM230400 33008KT P6SM SCT020
     FM231000 32011KT P6SM BKN250
     FM231700 32008KT P6SM SKC
     FM232100 33012KT P6SM SKC=

USA.gov is the U.S. government's official web portal to all federal, state and local government web resources and services.